AFR75AF LFPG-LFRB
Flight info
| Callsign | AFR75AF |
|---|---|
| Flight time | 1h 4m |
| Altitude | 34000 |
| Route | LGL UN491 UPALO UN585 FEJAC DCT BADUR T120 ANLEV |
| Aircraft | A321/M-SDE3FGHIRWY/LB1 |
Departure
| Time | 2026-04-20 17:16 |
|---|---|
| Airport | Charles de Gaulle International Airport (LFPG) |
Arrival
| Time | 2026-04-20 18:20 |
|---|---|
| Airport | Brest Bretagne airport (LFRB) |
| Time | Latitude | Longitude | Altitude | Speed | Heading |
|---|---|---|---|---|---|
| 2026-04-20 16:43 | 49.00706 | 2.57354 | 358 ft | 0 kts | 158° |
| 2026-04-20 17:04 | 49.00710 | 2.57351 | 358 ft | 2 kts | 158° |
| 2026-04-20 17:04 | 49.00724 | 2.57344 | 358 ft | 2 kts | 175° |
| 2026-04-20 17:05 | 49.00740 | 2.57345 | 358 ft | 2 kts | 191° |
| 2026-04-20 17:05 | 49.00754 | 2.57352 | 358 ft | 2 kts | 209° |
| 2026-04-20 17:05 | 49.00766 | 2.57366 | 358 ft | 2 kts | 227° |
| 2026-04-20 17:05 | 49.00775 | 2.57384 | 358 ft | 2 kts | 244° |
| 2026-04-20 17:06 | 49.00779 | 2.57406 | 358 ft | 1 kts | 262° |
| 2026-04-20 17:06 | 49.00780 | 2.57415 | 358 ft | 1 kts | 267° |
| 2026-04-20 17:06 | 49.00780 | 2.57418 | 358 ft | 0 kts | 266° |
| 2026-04-20 17:08 | 49.00780 | 2.57409 | 358 ft | 1 kts | 266° |
| 2026-04-20 17:08 | 49.00778 | 2.57374 | 358 ft | 5 kts | 265° |
| 2026-04-20 17:08 | 49.00774 | 2.57306 | 359 ft | 6 kts | 263° |
| 2026-04-20 17:09 | 49.00753 | 2.57243 | 359 ft | 7 kts | 213° |
| 2026-04-20 17:09 | 49.00702 | 2.57212 | 359 ft | 8 kts | 218° |
| 2026-04-20 17:09 | 49.00672 | 2.57113 | 359 ft | 12 kts | 253° |
| 2026-04-20 17:09 | 49.00655 | 2.56964 | 359 ft | 16 kts | 264° |
| 2026-04-20 17:10 | 49.00643 | 2.56772 | 359 ft | 20 kts | 265° |
| 2026-04-20 17:10 | 49.00631 | 2.56546 | 358 ft | 22 kts | 266° |
| 2026-04-20 17:10 | 49.00621 | 2.56312 | 357 ft | 22 kts | 266° |
| 2026-04-20 17:10 | 49.00603 | 2.56077 | 354 ft | 22 kts | 253° |
| 2026-04-20 17:11 | 49.00567 | 2.55834 | 350 ft | 23 kts | 264° |
| 2026-04-20 17:11 | 49.00553 | 2.55576 | 346 ft | 25 kts | 265° |
| 2026-04-20 17:11 | 49.00496 | 2.55348 | 342 ft | 24 kts | 206° |
| 2026-04-20 17:11 | 49.00335 | 2.55380 | 340 ft | 23 kts | 163° |
| 2026-04-20 17:12 | 49.00177 | 2.55448 | 340 ft | 23 kts | 164° |
| 2026-04-20 17:12 | 49.00021 | 2.55516 | 339 ft | 23 kts | 163° |
| 2026-04-20 17:12 | 48.99870 | 2.55621 | 340 ft | 23 kts | 133° |
| 2026-04-20 17:12 | 48.99811 | 2.55842 | 343 ft | 21 kts | 107° |
| 2026-04-20 17:13 | 48.99772 | 2.56003 | 345 ft | 11 kts | 142° |
| 2026-04-20 17:13 | 48.99691 | 2.56036 | 344 ft | 13 kts | 174° |
| 2026-04-20 17:13 | 48.99616 | 2.56047 | 344 ft | 2 kts | 166° |
| 2026-04-20 17:13 | 48.99613 | 2.56065 | 344 ft | 2 kts | 88° |
| 2026-04-20 17:14 | 48.99613 | 2.56073 | 344 ft | 0 kts | 85° |
| 2026-04-20 17:15 | 48.99613 | 2.56074 | 344 ft | 0 kts | 85° |
| 2026-04-20 17:15 | 48.99622 | 2.56236 | 346 ft | 46 kts | 85° |
| 2026-04-20 17:15 | 48.99672 | 2.57097 | 350 ft | 113 kts | 86° |
| 2026-04-20 17:16 | 48.99745 | 2.58594 | 336 ft | 169 kts | 85° |
| 2026-04-20 17:16 | 48.99819 | 2.60425 | 830 ft | 176 kts | 83° |
| 2026-04-20 17:16 | 48.99913 | 2.62259 | 1639 ft | 172 kts | 81° |
| 2026-04-20 17:16 | 49.00007 | 2.64010 | 2348 ft | 172 kts | 84° |
| 2026-04-20 17:17 | 48.99678 | 2.65823 | 2643 ft | 192 kts | 124° |
| 2026-04-20 17:17 | 48.98463 | 2.66844 | 2913 ft | 215 kts | 170° |
| 2026-04-20 17:17 | 48.96985 | 2.66318 | 3148 ft | 235 kts | 214° |
| 2026-04-20 17:17 | 48.95755 | 2.64572 | 3447 ft | 249 kts | 229° |
| 2026-04-20 17:18 | 48.94594 | 2.62490 | 3758 ft | 265 kts | 230° |
| 2026-04-20 17:18 | 48.93368 | 2.60323 | 4127 ft | 279 kts | 229° |
| 2026-04-20 17:18 | 48.92054 | 2.58118 | 4742 ft | 283 kts | 227° |
| 2026-04-20 17:18 | 48.90710 | 2.55943 | 5455 ft | 283 kts | 227° |
| 2026-04-20 17:19 | 48.89423 | 2.53698 | 6149 ft | 283 kts | 240° |
| 2026-04-20 17:19 | 48.88832 | 2.50925 | 6844 ft | 278 kts | 266° |
| 2026-04-20 17:19 | 48.88763 | 2.48029 | 7557 ft | 277 kts | 272° |
| 2026-04-20 17:19 | 48.88766 | 2.45112 | 8235 ft | 278 kts | 272° |
| 2026-04-20 17:20 | 48.88740 | 2.42183 | 8934 ft | 279 kts | 271° |
| 2026-04-20 17:20 | 48.88678 | 2.39255 | 9620 ft | 279 kts | 270° |
| 2026-04-20 17:20 | 48.88589 | 2.36305 | 10295 ft | 280 kts | 270° |
| 2026-04-20 17:20 | 48.88483 | 2.33322 | 10729 ft | 290 kts | 269° |
| 2026-04-20 17:21 | 48.88363 | 2.30190 | 10999 ft | 304 kts | 269° |
| 2026-04-20 17:21 | 48.88229 | 2.26939 | 11257 ft | 318 kts | 268° |
| 2026-04-20 17:21 | 48.88081 | 2.23540 | 11508 ft | 332 kts | 268° |
| 2026-04-20 17:21 | 48.87920 | 2.19961 | 11789 ft | 343 kts | 268° |
| 2026-04-20 17:22 | 48.87753 | 2.16338 | 12281 ft | 348 kts | 268° |
| 2026-04-20 17:22 | 48.87584 | 2.12697 | 12867 ft | 349 kts | 268° |
| 2026-04-20 17:22 | 48.87409 | 2.09007 | 13450 ft | 350 kts | 269° |
| 2026-04-20 17:22 | 48.87239 | 2.05359 | 13993 ft | 351 kts | 269° |
| 2026-04-20 17:23 | 48.87064 | 2.01651 | 14527 ft | 353 kts | 269° |
| 2026-04-20 17:23 | 48.86888 | 1.97926 | 15032 ft | 355 kts | 268° |
| 2026-04-20 17:23 | 48.86712 | 1.94206 | 15538 ft | 357 kts | 268° |
| 2026-04-20 17:23 | 48.86530 | 1.90432 | 16052 ft | 359 kts | 268° |
| 2026-04-20 17:24 | 48.86348 | 1.86694 | 16554 ft | 361 kts | 268° |
| 2026-04-20 17:24 | 48.86162 | 1.82885 | 17054 ft | 362 kts | 268° |
| 2026-04-20 17:24 | 48.85976 | 1.79095 | 17500 ft | 364 kts | 268° |
| 2026-04-20 17:24 | 48.85785 | 1.75229 | 17971 ft | 366 kts | 268° |
| 2026-04-20 17:25 | 48.85592 | 1.71372 | 18414 ft | 368 kts | 268° |
| 2026-04-20 17:25 | 48.85401 | 1.67559 | 18852 ft | 369 kts | 268° |
| 2026-04-20 17:25 | 48.85204 | 1.63675 | 19297 ft | 370 kts | 268° |
| 2026-04-20 17:25 | 48.85006 | 1.59772 | 19767 ft | 370 kts | 268° |
| 2026-04-20 17:26 | 48.84810 | 1.55931 | 20162 ft | 371 kts | 268° |
| 2026-04-20 17:26 | 48.84609 | 1.52015 | 20546 ft | 373 kts | 268° |
| 2026-04-20 17:26 | 48.84406 | 1.48088 | 20937 ft | 375 kts | 268° |
| 2026-04-20 17:26 | 48.84200 | 1.44147 | 21336 ft | 376 kts | 268° |
| 2026-04-20 17:27 | 48.83992 | 1.40186 | 21724 ft | 377 kts | 268° |
| 2026-04-20 17:27 | 48.83785 | 1.36267 | 22111 ft | 377 kts | 268° |
| 2026-04-20 17:27 | 48.83573 | 1.32280 | 22493 ft | 379 kts | 268° |
| 2026-04-20 17:27 | 48.83360 | 1.28286 | 22859 ft | 380 kts | 267° |
| 2026-04-20 17:28 | 48.83146 | 1.24304 | 23230 ft | 381 kts | 268° |
| 2026-04-20 17:28 | 48.82928 | 1.20281 | 23448 ft | 385 kts | 267° |
| 2026-04-20 17:28 | 48.82710 | 1.16275 | 23709 ft | 388 kts | 267° |
| 2026-04-20 17:28 | 48.82486 | 1.12191 | 24036 ft | 389 kts | 267° |
| 2026-04-20 17:29 | 48.82258 | 1.08065 | 24330 ft | 391 kts | 267° |
| 2026-04-20 17:29 | 48.82030 | 1.04007 | 24609 ft | 393 kts | 267° |
| 2026-04-20 17:29 | 48.81797 | 0.99862 | 24910 ft | 395 kts | 268° |
| 2026-04-20 17:29 | 48.81562 | 0.95706 | 25175 ft | 396 kts | 267° |
| 2026-04-20 17:30 | 48.81325 | 0.91551 | 25448 ft | 398 kts | 268° |
| 2026-04-20 17:30 | 48.81086 | 0.87361 | 25727 ft | 400 kts | 268° |
| 2026-04-20 17:30 | 48.80844 | 0.83160 | 25977 ft | 401 kts | 268° |
| 2026-04-20 17:30 | 48.80602 | 0.79004 | 26235 ft | 403 kts | 268° |
| 2026-04-20 17:31 | 48.80355 | 0.74762 | 26490 ft | 404 kts | 268° |
| 2026-04-20 17:31 | 48.80104 | 0.70516 | 26739 ft | 405 kts | 268° |
| 2026-04-20 17:31 | 48.79854 | 0.66298 | 26974 ft | 407 kts | 268° |
| 2026-04-20 17:31 | 48.79598 | 0.62013 | 27261 ft | 407 kts | 268° |
| 2026-04-20 17:32 | 48.79379 | 0.57788 | 27615 ft | 404 kts | 270° |
| 2026-04-20 17:32 | 48.79302 | 0.53539 | 27980 ft | 401 kts | 272° |
| 2026-04-20 17:32 | 48.79371 | 0.49365 | 28321 ft | 399 kts | 275° |
| 2026-04-20 17:32 | 48.79581 | 0.45185 | 28645 ft | 397 kts | 277° |
| 2026-04-20 17:33 | 48.79836 | 0.41068 | 28958 ft | 396 kts | 277° |
| 2026-04-20 17:33 | 48.80095 | 0.36929 | 29258 ft | 395 kts | 277° |
| 2026-04-20 17:33 | 48.80355 | 0.32753 | 29568 ft | 394 kts | 277° |
| 2026-04-20 17:33 | 48.80608 | 0.28662 | 29891 ft | 393 kts | 277° |
| 2026-04-20 17:34 | 48.80862 | 0.24531 | 30229 ft | 392 kts | 277° |
| 2026-04-20 17:34 | 48.81110 | 0.20481 | 30561 ft | 390 kts | 277° |
| 2026-04-20 17:34 | 48.81360 | 0.16385 | 30864 ft | 388 kts | 277° |
| 2026-04-20 17:34 | 48.81611 | 0.12305 | 31077 ft | 389 kts | 277° |
| 2026-04-20 17:35 | 48.81858 | 0.08220 | 31257 ft | 391 kts | 277° |
| 2026-04-20 17:35 | 48.82103 | 0.04161 | 31452 ft | 391 kts | 277° |
| 2026-04-20 17:35 | 48.82350 | 0.00033 | 31661 ft | 392 kts | 277° |
| 2026-04-20 17:35 | 48.82593 | -0.04071 | 31859 ft | 393 kts | 277° |
| 2026-04-20 17:36 | 48.82836 | -0.08193 | 32063 ft | 393 kts | 277° |
| 2026-04-20 17:36 | 48.83078 | -0.12311 | 32249 ft | 394 kts | 277° |
| 2026-04-20 17:36 | 48.83315 | -0.16395 | 32420 ft | 395 kts | 277° |
| 2026-04-20 17:36 | 48.83555 | -0.20542 | 32572 ft | 396 kts | 277° |
| 2026-04-20 17:37 | 48.83794 | -0.24707 | 32717 ft | 398 kts | 277° |
| 2026-04-20 17:37 | 48.84029 | -0.28890 | 32856 ft | 399 kts | 277° |
| 2026-04-20 17:37 | 48.84257 | -0.33084 | 33002 ft | 401 kts | 277° |
| 2026-04-20 17:37 | 48.84486 | -0.37312 | 33154 ft | 401 kts | 277° |
| 2026-04-20 17:38 | 48.84711 | -0.41468 | 33321 ft | 402 kts | 277° |
| 2026-04-20 17:38 | 48.84935 | -0.45703 | 33473 ft | 403 kts | 277° |
| 2026-04-20 17:38 | 48.85158 | -0.49928 | 33606 ft | 404 kts | 277° |
| 2026-04-20 17:38 | 48.85381 | -0.54199 | 33723 ft | 405 kts | 277° |
| 2026-04-20 17:39 | 48.85603 | -0.58476 | 33861 ft | 406 kts | 277° |
| 2026-04-20 17:39 | 48.85821 | -0.62698 | 34005 ft | 407 kts | 277° |
| 2026-04-20 17:39 | 48.86041 | -0.67012 | 34097 ft | 408 kts | 276° |
| 2026-04-20 17:40 | 48.86469 | -0.75545 | 34112 ft | 408 kts | 276° |
| 2026-04-20 17:40 | 48.86893 | -0.84105 | 34115 ft | 407 kts | 276° |
| 2026-04-20 17:41 | 48.87313 | -0.92668 | 34117 ft | 406 kts | 276° |
| 2026-04-20 17:41 | 48.87722 | -1.01140 | 34119 ft | 406 kts | 276° |
| 2026-04-20 17:42 | 48.88129 | -1.09687 | 34114 ft | 406 kts | 276° |
| 2026-04-20 17:42 | 48.88525 | -1.18188 | 34117 ft | 406 kts | 276° |
| 2026-04-20 17:43 | 48.88918 | -1.26747 | 34117 ft | 406 kts | 276° |
| 2026-04-20 17:43 | 48.89300 | -1.35264 | 34120 ft | 406 kts | 276° |
| 2026-04-20 17:44 | 48.89680 | -1.43808 | 34119 ft | 406 kts | 276° |
| 2026-04-20 17:44 | 48.90053 | -1.52293 | 34121 ft | 407 kts | 276° |
| 2026-04-20 17:45 | 48.90425 | -1.60922 | 34122 ft | 412 kts | 276° |
| 2026-04-20 17:45 | 48.90561 | -1.69611 | 34125 ft | 415 kts | 270° |
| 2026-04-20 17:46 | 48.90116 | -1.78338 | 34122 ft | 416 kts | 265° |
| 2026-04-20 17:46 | 48.89096 | -1.86960 | 34124 ft | 419 kts | 260° |
| 2026-04-20 17:47 | 48.87723 | -1.95550 | 34128 ft | 418 kts | 259° |
| 2026-04-20 17:47 | 48.86344 | -2.04054 | 34120 ft | 418 kts | 259° |
| 2026-04-20 17:48 | 48.84965 | -2.12501 | 34106 ft | 404 kts | 259° |
| 2026-04-20 17:48 | 48.84287 | -2.16634 | 33626 ft | 403 kts | 259° |
| 2026-04-20 17:48 | 48.83617 | -2.20716 | 33123 ft | 402 kts | 259° |
| 2026-04-20 17:48 | 48.82941 | -2.24825 | 32613 ft | 403 kts | 259° |
| 2026-04-20 17:49 | 48.82262 | -2.28934 | 32105 ft | 404 kts | 259° |
| 2026-04-20 17:49 | 48.81578 | -2.33064 | 31590 ft | 405 kts | 259° |
| 2026-04-20 17:49 | 48.80902 | -2.37136 | 31086 ft | 405 kts | 259° |
| 2026-04-20 17:49 | 48.80213 | -2.41274 | 30563 ft | 407 kts | 259° |
| 2026-04-20 17:50 | 48.79520 | -2.45427 | 30044 ft | 408 kts | 259° |
| 2026-04-20 17:50 | 48.78826 | -2.49569 | 29524 ft | 409 kts | 259° |
| 2026-04-20 17:50 | 48.78126 | -2.53734 | 29001 ft | 410 kts | 259° |
| 2026-04-20 17:50 | 48.77425 | -2.57910 | 28478 ft | 412 kts | 259° |
| 2026-04-20 17:51 | 48.76718 | -2.62116 | 27956 ft | 413 kts | 259° |
| 2026-04-20 17:51 | 48.76008 | -2.66318 | 27439 ft | 416 kts | 258° |
| 2026-04-20 17:51 | 48.75290 | -2.70564 | 26760 ft | 419 kts | 258° |
| 2026-04-20 17:51 | 48.74561 | -2.74866 | 25891 ft | 419 kts | 258° |
| 2026-04-20 17:52 | 48.73842 | -2.79087 | 25664 ft | 414 kts | 258° |
| 2026-04-20 17:52 | 48.73123 | -2.83295 | 25572 ft | 414 kts | 258° |
| 2026-04-20 17:52 | 48.72407 | -2.87469 | 25477 ft | 414 kts | 258° |
| 2026-04-20 17:52 | 48.71685 | -2.91678 | 25345 ft | 413 kts | 258° |
| 2026-04-20 17:53 | 48.70964 | -2.95864 | 25237 ft | 411 kts | 258° |
| 2026-04-20 17:53 | 48.70249 | -2.99972 | 25031 ft | 398 kts | 258° |
| 2026-04-20 17:53 | 48.69559 | -3.03912 | 24977 ft | 381 kts | 258° |
| 2026-04-20 17:53 | 48.69022 | -3.07797 | 24790 ft | 376 kts | 268° |
| 2026-04-20 17:54 | 48.69368 | -3.11632 | 24233 ft | 371 kts | 290° |
| 2026-04-20 17:54 | 48.70595 | -3.15078 | 23611 ft | 370 kts | 303° |
| 2026-04-20 17:54 | 48.72351 | -3.17900 | 22930 ft | 374 kts | 319° |
| 2026-04-20 17:54 | 48.74629 | -3.19782 | 22266 ft | 381 kts | 336° |
| 2026-04-20 17:55 | 48.77228 | -3.20455 | 21721 ft | 387 kts | 356° |
| 2026-04-20 17:55 | 48.79897 | -3.19759 | 21715 ft | 401 kts | 14° |
| 2026-04-20 17:55 | 48.82381 | -3.17654 | 21743 ft | 415 kts | 35° |
| 2026-04-20 17:55 | 48.84257 | -3.14296 | 21758 ft | 427 kts | 57° |
| 2026-04-20 17:56 | 48.85322 | -3.10095 | 21797 ft | 434 kts | 71° |
| 2026-04-20 17:56 | 48.86112 | -3.05648 | 21779 ft | 434 kts | 72° |
| 2026-04-20 17:56 | 48.86869 | -3.01249 | 21786 ft | 434 kts | 72° |
| 2026-04-20 17:56 | 48.87642 | -2.96856 | 21796 ft | 434 kts | 72° |
| 2026-04-20 17:57 | 48.88265 | -2.92339 | 21637 ft | 437 kts | 82° |
| 2026-04-20 17:57 | 48.88139 | -2.87766 | 21387 ft | 437 kts | 99° |
| 2026-04-20 17:57 | 48.87198 | -2.83417 | 21123 ft | 435 kts | 117° |
| 2026-04-20 17:57 | 48.85527 | -2.79671 | 20862 ft | 429 kts | 134° |
| 2026-04-20 17:58 | 48.83270 | -2.76821 | 20606 ft | 422 kts | 152° |
| 2026-04-20 17:58 | 48.80597 | -2.75083 | 20345 ft | 411 kts | 169° |
| 2026-04-20 17:58 | 48.77819 | -2.74622 | 20082 ft | 400 kts | 187° |
| 2026-04-20 17:58 | 48.75151 | -2.75412 | 19829 ft | 389 kts | 204° |
| 2026-04-20 17:59 | 48.72837 | -2.77348 | 19570 ft | 379 kts | 222° |
| 2026-04-20 17:59 | 48.71075 | -2.80255 | 19314 ft | 370 kts | 240° |
| 2026-04-20 17:59 | 48.70068 | -2.83765 | 19055 ft | 363 kts | 258° |
| 2026-04-20 17:59 | 48.69891 | -2.87521 | 18801 ft | 359 kts | 277° |
| 2026-04-20 18:00 | 48.70349 | -2.91212 | 18572 ft | 359 kts | 280° |
| 2026-04-20 18:00 | 48.70522 | -2.94947 | 18317 ft | 359 kts | 269° |
| 2026-04-20 18:00 | 48.70264 | -2.98712 | 18076 ft | 360 kts | 262° |
| 2026-04-20 18:00 | 48.69772 | -3.02408 | 17829 ft | 360 kts | 259° |
| 2026-04-20 18:01 | 48.69185 | -3.06068 | 17587 ft | 360 kts | 258° |
| 2026-04-20 18:01 | 48.68601 | -3.09768 | 17350 ft | 371 kts | 258° |
| 2026-04-20 18:01 | 48.67999 | -3.13618 | 17104 ft | 379 kts | 258° |
| 2026-04-20 18:01 | 48.67382 | -3.17536 | 16854 ft | 380 kts | 258° |
| 2026-04-20 18:02 | 48.66768 | -3.21398 | 16600 ft | 379 kts | 258° |
| 2026-04-20 18:02 | 48.66150 | -3.25270 | 16349 ft | 379 kts | 258° |
| 2026-04-20 18:02 | 48.65535 | -3.29113 | 16085 ft | 378 kts | 258° |
| 2026-04-20 18:02 | 48.64918 | -3.32946 | 15849 ft | 376 kts | 258° |
| 2026-04-20 18:03 | 48.64303 | -3.36760 | 15593 ft | 375 kts | 258° |
| 2026-04-20 18:03 | 48.63688 | -3.40564 | 15344 ft | 374 kts | 258° |
| 2026-04-20 18:03 | 48.63065 | -3.44412 | 15103 ft | 373 kts | 258° |
| 2026-04-20 18:03 | 48.62449 | -3.48203 | 14842 ft | 372 kts | 258° |
| 2026-04-20 18:04 | 48.61839 | -3.51971 | 14577 ft | 371 kts | 258° |
| 2026-04-20 18:04 | 48.61325 | -3.55767 | 14323 ft | 370 kts | 262° |
| 2026-04-20 18:04 | 48.60958 | -3.59581 | 14002 ft | 368 kts | 264° |
| 2026-04-20 18:04 | 48.60637 | -3.63380 | 13604 ft | 365 kts | 264° |
| 2026-04-20 18:05 | 48.60004 | -3.70952 | 12651 ft | 360 kts | 263° |
| 2026-04-20 18:05 | 48.59690 | -3.74665 | 12154 ft | 357 kts | 263° |
| 2026-04-20 18:05 | 48.59378 | -3.78345 | 11657 ft | 354 kts | 263° |
| 2026-04-20 18:06 | 48.59066 | -3.82006 | 11152 ft | 352 kts | 263° |
| 2026-04-20 18:06 | 48.58753 | -3.85639 | 10712 ft | 347 kts | 263° |
| 2026-04-20 18:06 | 48.58449 | -3.89164 | 10571 ft | 333 kts | 263° |
| 2026-04-20 18:06 | 48.58156 | -3.92538 | 10447 ft | 319 kts | 263° |
| 2026-04-20 18:07 | 48.57871 | -3.95811 | 10328 ft | 305 kts | 263° |
| 2026-04-20 18:07 | 48.57601 | -3.98906 | 10221 ft | 292 kts | 263° |
| 2026-04-20 18:07 | 48.57341 | -4.01864 | 10128 ft | 280 kts | 263° |
| 2026-04-20 18:07 | 48.57090 | -4.04740 | 9860 ft | 277 kts | 263° |
| 2026-04-20 18:08 | 48.56838 | -4.07607 | 9509 ft | 276 kts | 263° |
| 2026-04-20 18:08 | 48.56586 | -4.10474 | 9167 ft | 275 kts | 263° |
| 2026-04-20 18:08 | 48.56334 | -4.13328 | 8825 ft | 274 kts | 263° |
| 2026-04-20 18:08 | 48.56081 | -4.16170 | 8494 ft | 272 kts | 263° |
| 2026-04-20 18:09 | 48.55832 | -4.18982 | 8168 ft | 271 kts | 263° |
| 2026-04-20 18:09 | 48.55581 | -4.21786 | 7843 ft | 270 kts | 263° |
| 2026-04-20 18:09 | 48.55331 | -4.24570 | 7527 ft | 268 kts | 263° |
| 2026-04-20 18:09 | 48.55083 | -4.27336 | 7210 ft | 267 kts | 263° |
| 2026-04-20 18:10 | 48.54832 | -4.30107 | 6895 ft | 266 kts | 263° |
| 2026-04-20 18:10 | 48.54583 | -4.32861 | 6589 ft | 264 kts | 263° |
| 2026-04-20 18:10 | 48.54335 | -4.35596 | 6287 ft | 263 kts | 262° |
| 2026-04-20 18:10 | 48.54090 | -4.38280 | 5985 ft | 262 kts | 262° |
| 2026-04-20 18:11 | 48.53841 | -4.41006 | 5679 ft | 261 kts | 262° |
| 2026-04-20 18:11 | 48.53593 | -4.43721 | 5368 ft | 260 kts | 262° |
| 2026-04-20 18:11 | 48.53346 | -4.46412 | 5083 ft | 258 kts | 262° |
| 2026-04-20 18:11 | 48.53104 | -4.49038 | 5016 ft | 253 kts | 262° |
| 2026-04-20 18:12 | 48.52861 | -4.51670 | 5012 ft | 253 kts | 262° |
| 2026-04-20 18:12 | 48.52517 | -4.54274 | 4995 ft | 254 kts | 254° |
| 2026-04-20 18:12 | 48.51985 | -4.56809 | 4995 ft | 254 kts | 251° |
| 2026-04-20 18:12 | 48.51408 | -4.59321 | 4988 ft | 254 kts | 250° |
| 2026-04-20 18:13 | 48.50824 | -4.61834 | 4691 ft | 255 kts | 250° |
| 2026-04-20 18:13 | 48.50245 | -4.64349 | 4386 ft | 254 kts | 250° |
| 2026-04-20 18:13 | 48.49674 | -4.66847 | 4091 ft | 252 kts | 249° |
| 2026-04-20 18:13 | 48.49086 | -4.69273 | 3934 ft | 248 kts | 242° |
| 2026-04-20 18:14 | 48.47966 | -4.71215 | 3570 ft | 243 kts | 203° |
| 2026-04-20 18:14 | 48.46395 | -4.71737 | 3323 ft | 226 kts | 173° |
| 2026-04-20 18:14 | 48.44885 | -4.71560 | 3207 ft | 217 kts | 169° |
| 2026-04-20 18:14 | 48.43380 | -4.71335 | 3070 ft | 217 kts | 170° |
| 2026-04-20 18:15 | 48.41911 | -4.71090 | 3044 ft | 200 kts | 160° |
| 2026-04-20 18:15 | 48.40822 | -4.70093 | 2984 ft | 171 kts | 127° |
| 2026-04-20 18:15 | 48.40307 | -4.68653 | 2871 ft | 151 kts | 103° |
| 2026-04-20 18:15 | 48.40136 | -4.67138 | 2640 ft | 141 kts | 96° |
| 2026-04-20 18:16 | 48.40004 | -4.65687 | 2505 ft | 139 kts | 96° |
| 2026-04-20 18:16 | 48.39905 | -4.64246 | 2494 ft | 140 kts | 89° |
| 2026-04-20 18:16 | 48.40020 | -4.62784 | 2489 ft | 141 kts | 77° |
| 2026-04-20 18:16 | 48.40312 | -4.61393 | 2490 ft | 141 kts | 73° |
| 2026-04-20 18:17 | 48.40634 | -4.59998 | 2528 ft | 141 kts | 73° |
| 2026-04-20 18:17 | 48.40956 | -4.58598 | 2387 ft | 143 kts | 72° |
| 2026-04-20 18:17 | 48.41270 | -4.57224 | 2131 ft | 139 kts | 73° |
| 2026-04-20 18:17 | 48.41583 | -4.55854 | 1939 ft | 139 kts | 72° |
| 2026-04-20 18:18 | 48.41896 | -4.54479 | 1737 ft | 138 kts | 72° |
| 2026-04-20 18:18 | 48.42207 | -4.53116 | 1546 ft | 138 kts | 72° |
| 2026-04-20 18:18 | 48.42519 | -4.51747 | 1369 ft | 137 kts | 72° |
| 2026-04-20 18:18 | 48.42828 | -4.50383 | 1181 ft | 137 kts | 71° |
| 2026-04-20 18:19 | 48.43131 | -4.49047 | 1005 ft | 136 kts | 70° |
| 2026-04-20 18:19 | 48.43438 | -4.47698 | 829 ft | 136 kts | 70° |
| 2026-04-20 18:19 | 48.43744 | -4.46350 | 640 ft | 136 kts | 70° |
| 2026-04-20 18:19 | 48.44058 | -4.45018 | 472 ft | 134 kts | 67° |
| 2026-04-20 18:20 | 48.44368 | -4.43694 | 322 ft | 134 kts | 69° |
| 2026-04-20 18:20 | 48.44651 | -4.42474 | 307 ft | 106 kts | 70° |
| 2026-04-20 18:20 | 48.44828 | -4.41666 | 321 ft | 57 kts | 71° |
| 2026-04-20 18:20 | 48.44916 | -4.41278 | 330 ft | 25 kts | 72° |
| 2026-04-20 18:21 | 48.44928 | -4.41191 | 330 ft | 1 kts | 21° |
| 2026-04-20 18:21 | 48.44933 | -4.41208 | 330 ft | 4 kts | 262° |
| 2026-04-20 18:21 | 48.44915 | -4.41277 | 330 ft | 9 kts | 248° |
| 2026-04-20 18:21 | 48.44887 | -4.41405 | 328 ft | 16 kts | 251° |
| 2026-04-20 18:22 | 48.44840 | -4.41600 | 321 ft | 22 kts | 238° |
| 2026-04-20 18:22 | 48.44702 | -4.41620 | 320 ft | 20 kts | 187° |
| 2026-04-20 18:22 | 48.44627 | -4.41780 | 321 ft | 19 kts | 250° |
| 2026-04-20 18:22 | 48.44581 | -4.41969 | 317 ft | 15 kts | 216° |
| 2026-04-20 18:23 | 48.44480 | -4.42002 | 317 ft | 14 kts | 194° |
| 2026-04-20 18:23 | 48.44439 | -4.42015 | 317 ft | 0 kts | 190° |